Time;durP1;ratioP1;P1;durP2;ratioP2;P2;SDS_P1;SDS_P2;PMS_P1;PMS_P2;Temp;Humidity;BMP_temperature;BMP_pressure;BME280_temperature;BME280_humidity;BME280_pressure;Samples;Min_cycle;Max_cycle;Signal;HPM_P1;HPM_P2
2022/06/04 00:01:12;;;;;;;121.90;115.90;;;19.00;99.90;;;;;;5020236;28;20672;-72
2022/06/04 00:03:39;;;;;;;118.15;113.07;;;18.90;99.90;;;;;;5026961;28;20198;-72
2022/06/04 00:06:05;;;;;;;124.38;118.38;;;18.80;99.90;;;;;;5031284;28;20185;-71
2022/06/04 00:08:33;;;;;;;156.23;149.05;;;18.80;99.90;;;;;;5017745;28;20559;-71
2022/06/04 00:16:29;;;;;;;113.85;108.32;;;18.70;99.90;;;;;;5024226;28;20213;-71
2022/06/04 00:18:55;;;;;;;151.02;143.45;;;18.60;99.90;;;;;;5029752;28;20183;-70
2022/06/04 00:21:22;;;;;;;143.48;137.05;;;18.70;99.90;;;;;;5030385;28;20560;-70
2022/06/04 00:23:48;;;;;;;148.05;141.50;;;18.70;99.90;;;;;;5027248;28;20195;-70
2022/06/04 00:26:14;;;;;;;140.55;134.20;;;18.60;99.90;;;;;;5026802;28;20261;-70
2022/06/04 00:28:41;;;;;;;197.77;189.50;;;18.50;99.90;;;;;;5031290;28;20226;-70
2022/06/04 00:31:07;;;;;;;183.93;175.82;;;18.50;99.90;;;;;;5011948;28;20188;-71
2022/06/04 00:33:33;;;;;;;190.57;181.23;;;18.60;99.90;;;;;;5024334;28;20190;-70
2022/06/04 00:36:00;;;;;;;172.88;165.55;;;18.50;99.90;;;;;;5028766;28;20189;-70
2022/06/04 00:38:28;;;;;;;226.18;213.82;;;18.60;99.90;;;;;;5031642;28;20186;-71
2022/06/04 00:41:22;;;;;;;182.18;174.10;;;18.60;99.90;;;;;;5028609;28;20542;-70
2022/06/04 00:44:03;;;;;;;191.75;183.10;;;18.50;99.90;;;;;;5032327;28;20194;-71
2022/06/04 00:47:05;;;;;;;173.25;165.05;;;18.50;99.90;;;;;;5032175;28;20218;-71
2022/06/04 00:49:31;;;;;;;232.13;222.35;;;18.50;99.90;;;;;;5031505;28;20186;-71
2022/06/04 00:51:58;;;;;;;183.90;175.90;;;18.40;99.90;;;;;;5031116;28;20201;-70
2022/06/04 00:54:23;;;;;;;157.57;150.68;;;18.40;99.90;;;;;;5029900;28;20175;-71
2022/06/04 00:57:29;;;;;;;224.25;215.25;;;18.30;99.90;;;;;;5028234;28;20338;-72
2022/06/04 01:00:01;;;;;;;325.95;312.30;;;18.40;99.90;;;;;;5014940;28;20190;-70
2022/06/04 01:02:35;;;;;;;228.05;217.93;;;18.40;99.90;;;;;;5021237;28;20556;-70
2022/06/04 01:05:38;;;;;;;255.13;244.07;;;18.40;99.90;;;;;;5024502;28;20318;-70
2022/06/04 01:08:27;;;;;;;329.52;315.90;;;18.40;99.90;;;;;;5029275;28;20255;-70
2022/06/04 01:11:24;;;;;;;415.95;396.52;;;18.50;99.90;;;;;;5019731;28;20178;-70
2022/06/04 01:14:10;;;;;;;362.80;347.65;;;18.40;99.90;;;;;;5026275;28;20274;-70
2022/06/04 01:16:55;;;;;;;326.02;312.00;;;18.20;99.90;;;;;;5029444;28;20182;-70
2022/06/04 01:19:55;;;;;;;282.67;270.98;;;18.20;99.90;;;;;;5022542;28;20224;-72
2022/06/04 01:23:06;;;;;;;279.30;267.88;;;18.10;99.90;;;;;;5029249;28;20179;-69
2022/06/04 01:25:50;;;;;;;215.20;206.02;;;18.00;99.90;;;;;;5023376;28;20182;-68
2022/06/04 01:28:17;;;;;;;224.55;215.13;;;18.10;99.90;;;;;;5015355;28;20656;-70
2022/06/04 01:30:50;;;;;;;248.43;238.27;;;18.20;99.90;;;;;;5030442;28;20336;-70
2022/06/04 01:33:37;;;;;;;419.58;397.15;;;18.20;99.90;;;;;;5021030;28;20187;-69
2022/06/04 01:36:29;;;;;;;474.48;453.83;;;18.30;99.90;;;;;;5027026;28;20218;-69
2022/06/04 01:39:19;;;;;;;412.38;394.90;;;18.10;99.90;;;;;;5034706;28;20187;-69
2022/06/04 01:41:57;;;;;;;415.35;398.00;;;18.00;99.90;;;;;;5019470;28;20179;-68
2022/06/04 01:44:32;;;;;;;506.13;483.00;;;17.90;99.90;;;;;;5029073;28;20187;-68
2022/06/04 01:47:01;;;;;;;490.70;469.13;;;17.70;99.90;;;;;;5025564;28;20237;-68
2022/06/04 01:50:05;;;;;;;513.42;490.42;;;17.70;99.90;;;;;;5026328;28;20198;-68
2022/06/04 01:52:38;;;;;;;502.50;479.27;;;17.70;99.90;;;;;;4981746;28;20288;-69
2022/06/04 01:55:16;;;;;;;573.42;545.75;;;17.60;99.90;;;;;;5011322;28;20211;-68
2022/06/04 01:58:08;;;;;;;623.78;592.83;;;17.60;99.90;;;;;;5032276;28;20631;-69
2022/06/04 02:00:43;;;;;;;620.35;590.63;;;17.60;99.90;;;;;;5033216;28;20203;-69
2022/06/04 02:03:19;;;;;;;560.90;535.03;;;17.70;99.90;;;;;;5029996;28;20337;-70
2022/06/04 02:05:59;;;;;;;569.22;543.47;;;17.60;99.90;;;;;;5049322;28;20218;-69
2022/06/04 02:08:31;;;;;;;569.17;542.90;;;17.60;99.90;;;;;;5022278;28;20222;-69
2022/06/04 02:11:07;;;;;;;561.55;535.33;;;17.60;99.90;;;;;;5032912;28;20186;-69
2022/06/04 02:13:35;;;;;;;575.47;548.22;;;17.60;99.90;;;;;;5030253;28;20659;-69
2022/06/04 02:16:22;;;;;;;568.78;542.60;;;17.60;99.90;;;;;;5025276;28;20210;-69
2022/06/04 02:18:49;;;;;;;604.28;575.10;;;17.50;99.90;;;;;;5033836;28;20274;-69
2022/06/04 02:21:18;;;;;;;595.88;568.00;;;17.50;99.90;;;;;;5032010;28;20233;-69
2022/06/04 02:23:45;;;;;;;625.10;595.08;;;17.50;99.90;;;;;;5031018;28;20310;-70
2022/06/04 02:26:11;;;;;;;595.03;567.17;;;17.50;99.90;;;;;;5035058;28;20632;-70
2022/06/04 02:28:37;;;;;;;596.80;569.00;;;17.50;99.90;;;;;;5020164;28;20199;-69
2022/06/04 02:31:26;;;;;;;565.72;539.90;;;17.50;99.90;;;;;;5010514;28;20187;-68
2022/06/04 02:34:10;;;;;;;624.05;593.97;;;17.50;99.90;;;;;;5028848;28;20257;-69
2022/06/04 02:36:55;;;;;;;599.30;571.38;;;17.30;99.90;;;;;;5028595;28;20193;-69
2022/06/04 02:39:41;;;;;;;626.70;596.85;;;17.20;99.90;;;;;;5017517;28;20237;-69
2022/06/04 02:42:16;;;;;;;658.95;626.17;;;17.10;99.90;;;;;;5028507;28;20190;-69
2022/06/04 02:44:52;;;;;;;520.85;497.25;;;17.20;99.90;;;;;;5028474;28;20186;-68
2022/06/04 02:47:36;;;;;;;600.28;571.28;;;17.20;99.90;;;;;;5018571;28;20210;-67
2022/06/04 02:50:02;;;;;;;608.97;580.03;;;17.00;99.90;;;;;;5049522;28;20632;-68
2022/06/04 02:52:30;;;;;;;608.28;579.17;;;17.00;99.90;;;;;;5033183;28;20198;-68
2022/06/04 02:54:58;;;;;;;653.90;621.60;;;17.00;99.90;;;;;;5025178;28;20191;-68
2022/06/04 02:57:26;;;;;;;614.17;584.78;;;16.80;99.90;;;;;;5016280;28;20553;-68
2022/06/04 02:59:53;;;;;;;633.35;602.28;;;16.80;99.90;;;;;;5032938;28;20187;-68
2022/06/04 03:02:20;;;;;;;582.35;555.42;;;16.80;99.90;;;;;;5029403;28;20209;-68
2022/06/04 03:04:51;;;;;;;608.33;579.42;;;16.80;99.90;;;;;;5016698;28;20194;-68
2022/06/04 03:07:19;;;;;;;629.85;599.47;;;16.90;99.90;;;;;;5021955;28;20672;-69
2022/06/04 03:09:47;;;;;;;639.65;608.33;;;16.90;99.90;;;;;;5031463;28;20266;-69
2022/06/04 03:12:13;;;;;;;578.78;552.05;;;16.80;99.90;;;;;;5032485;28;20194;-68
2022/06/04 03:14:39;;;;;;;577.22;550.22;;;16.90;99.90;;;;;;5026853;28;20183;-69
2022/06/04 03:17:10;;;;;;;636.28;605.53;;;16.80;99.90;;;;;;5028116;28;20236;-68
2022/06/04 03:19:36;;;;;;;609.25;579.80;;;16.70;99.90;;;;;;5028059;28;20194;-68
2022/06/04 03:22:01;;;;;;;617.80;588.28;;;16.70;99.90;;;;;;5026172;28;20184;-68
2022/06/04 03:24:27;;;;;;;624.67;594.13;;;16.50;99.90;;;;;;5025520;28;20191;-69
2022/06/04 03:26:53;;;;;;;626.00;595.92;;;16.50;99.90;;;;;;5027309;28;20206;-68
2022/06/04 03:29:19;;;;;;;601.42;572.13;;;16.50;99.90;;;;;;5027450;28;20240;-68
2022/06/04 03:31:45;;;;;;;643.13;611.50;;;16.40;99.90;;;;;;5031959;28;20186;-69
2022/06/04 03:34:11;;;;;;;625.47;595.58;;;16.50;99.90;;;;;;5033106;28;20183;-69
2022/06/04 03:36:37;;;;;;;617.85;588.42;;;16.50;99.90;;;;;;5032032;28;20182;-69
2022/06/04 03:39:05;;;;;;;659.05;626.33;;;16.40;99.90;;;;;;5022338;28;20179;-68
2022/06/04 03:41:30;;;;;;;637.70;606.83;;;16.40;99.90;;;;;;5024583;28;20660;-68
2022/06/04 03:43:56;;;;;;;612.22;583.30;;;16.50;99.90;;;;;;5031393;28;20194;-69
2022/06/04 03:46:24;;;;;;;605.78;577.00;;;16.40;99.90;;;;;;5033472;28;20186;-68
2022/06/04 03:48:51;;;;;;;637.65;606.42;;;16.30;99.90;;;;;;5015436;28;20230;-69
2022/06/04 03:51:17;;;;;;;631.33;601.10;;;16.40;99.90;;;;;;5015936;28;20304;-69
2022/06/04 03:53:42;;;;;;;622.80;592.50;;;16.50;99.90;;;;;;5047056;28;20281;-69
2022/06/04 03:56:08;;;;;;;664.83;631.42;;;16.50;99.90;;;;;;5026461;28;20290;-69
2022/06/04 03:58:34;;;;;;;639.85;608.83;;;16.50;99.90;;;;;;5024248;28;20230;-69
2022/06/04 04:01:00;;;;;;;665.22;631.50;;;16.40;99.90;;;;;;5031772;28;20303;-69
2022/06/04 04:03:26;;;;;;;693.53;657.88;;;16.20;99.90;;;;;;5032794;28;20191;-69
2022/06/04 04:05:54;;;;;;;654.92;622.38;;;16.10;99.90;;;;;;5027049;28;20187;-69
2022/06/04 04:08:23;;;;;;;652.03;619.53;;;16.10;99.90;;;;;;5029067;28;20208;-69
2022/06/04 04:10:49;;;;;;;619.75;589.55;;;16.20;99.90;;;;;;5012776;28;20191;-68
2022/06/04 04:13:16;;;;;;;684.47;649.60;;;16.40;99.90;;;;;;5028275;28;20185;-69
2022/06/04 04:15:42;;;;;;;647.42;615.72;;;16.30;99.90;;;;;;5031202;28;20190;-69
2022/06/04 04:18:09;;;;;;;614.58;584.67;;;16.20;99.90;;;;;;5030457;28;20197;-69
2022/06/04 04:20:37;;;;;;;571.50;545.35;;;16.10;99.90;;;;;;5028269;28;20187;-69
2022/06/04 04:23:06;;;;;;;556.03;530.88;;;16.20;99.90;;;;;;5031922;28;20587;-69
2022/06/04 04:25:32;;;;;;;576.63;550.20;;;16.40;99.90;;;;;;5036379;28;20194;-69
2022/06/04 04:27:59;;;;;;;594.47;566.67;;;16.50;99.90;;;;;;5016115;28;20400;-69
2022/06/04 04:30:27;;;;;;;541.30;516.92;;;16.50;99.90;;;;;;5015814;28;20682;-69
2022/06/04 04:32:53;;;;;;;529.20;505.08;;;16.40;99.90;;;;;;5030740;28;20244;-68
2022/06/04 04:35:24;;;;;;;563.10;537.00;;;16.40;99.90;;;;;;5031242;28;20183;-69
2022/06/04 04:37:51;;;;;;;569.55;542.92;;;16.30;99.90;;;;;;5047576;28;20182;-69
2022/06/04 04:40:18;;;;;;;639.75;608.38;;;16.30;99.90;;;;;;5027920;28;20291;-69
2022/06/04 04:42:44;;;;;;;580.85;553.13;;;16.10;99.90;;;;;;5021618;28;20195;-69
2022/06/04 04:45:11;;;;;;;572.47;546.30;;;16.20;99.90;;;;;;5030579;28;20186;-69
2022/06/04 04:47:39;;;;;;;600.35;572.13;;;16.20;99.90;;;;;;5024286;28;20234;-69
2022/06/04 04:50:10;;;;;;;587.17;559.95;;;16.00;99.90;;;;;;5047048;28;20193;-69
2022/06/04 04:52:35;;;;;;;620.63;590.45;;;16.00;99.90;;;;;;5020345;28;20186;-69
2022/06/04 04:55:01;;;;;;;664.92;631.17;;;16.00;99.90;;;;;;5021166;28;20187;-69
2022/06/04 04:57:29;;;;;;;677.05;643.22;;;16.00;99.90;;;;;;5026667;28;20198;-69
2022/06/04 04:59:55;;;;;;;618.58;588.05;;;15.90;99.90;;;;;;5026362;28;20539;-69
2022/06/04 05:02:21;;;;;;;691.88;656.05;;;15.90;99.90;;;;;;5033130;28;20187;-69
2022/06/04 05:04:47;;;;;;;678.80;644.50;;;15.80;99.90;;;;;;5010868;28;20636;-70
2022/06/04 05:07:12;;;;;;;704.60;667.92;;;15.80;99.90;;;;;;5045012;28;20207;-70
2022/06/04 05:09:39;;;;;;;651.75;619.63;;;15.90;99.90;;;;;;5032536;28;20209;-70
2022/06/04 05:12:09;;;;;;;670.17;636.80;;;16.10;99.90;;;;;;5037395;28;20210;-70
2022/06/04 05:14:36;;;;;;;619.63;589.88;;;16.20;99.90;;;;;;5028805;28;20183;-70
2022/06/04 05:17:02;;;;;;;631.45;600.42;;;16.20;99.90;;;;;;5032951;28;20182;-70
2022/06/04 05:19:28;;;;;;;593.55;565.65;;;16.20;99.90;;;;;;5021304;28;20191;-70
2022/06/04 05:21:55;;;;;;;651.55;619.17;;;16.20;99.90;;;;;;5030782;28;20181;-70
2022/06/04 05:24:27;;;;;;;614.92;584.90;;;16.00;99.90;;;;;;5030820;28;20244;-69
2022/06/04 05:26:53;;;;;;;618.95;588.95;;;16.00;99.90;;;;;;5042076;28;20203;-69
2022/06/04 05:29:20;;;;;;;687.67;652.47;;;16.10;99.90;;;;;;5026906;28;20197;-70
2022/06/04 05:31:46;;;;;;;654.08;621.45;;;16.20;99.90;;;;;;5029445;28;20183;-70
2022/06/04 05:34:14;;;;;;;659.47;626.60;;;16.30;99.90;;;;;;5035286;28;20551;-70
2022/06/04 05:36:40;;;;;;;643.53;611.67;;;16.20;99.90;;;;;;5024853;28;20194;-70
2022/06/04 05:39:07;;;;;;;648.90;616.42;;;16.40;99.90;;;;;;5012654;28;20209;-69
2022/06/04 05:41:33;;;;;;;664.22;630.67;;;16.20;99.90;;;;;;5017302;28;20187;-70
2022/06/04 05:43:59;;;;;;;652.35;620.15;;;16.00;99.90;;;;;;5015312;28;20187;-70
2022/06/04 05:46:25;;;;;;;622.28;592.65;;;16.10;99.90;;;;;;5029608;28;20550;-70
2022/06/04 05:48:51;;;;;;;543.92;518.33;;;16.40;99.90;;;;;;5022847;28;20222;-70
2022/06/04 05:51:23;;;;;;;636.80;605.72;;;16.40;99.90;;;;;;5021988;28;20203;-70
2022/06/04 05:53:49;;;;;;;600.78;571.08;;;16.50;99.90;;;;;;5021935;28;20187;-70
2022/06/04 05:56:18;;;;;;;653.72;621.28;;;16.40;99.90;;;;;;5015854;28;20192;-71
2022/06/04 05:58:46;;;;;;;660.05;627.42;;;16.40;99.90;;;;;;5042535;28;20179;-71
2022/06/04 06:01:14;;;;;;;649.28;616.90;;;16.50;99.90;;;;;;5012242;28;20280;-70
2022/06/04 06:03:40;;;;;;;641.75;609.83;;;16.50;99.90;;;;;;5027849;28;20728;-71
2022/06/04 06:06:14;;;;;;;655.28;622.58;;;16.40;99.90;;;;;;5009709;28;20184;-70
2022/06/04 06:08:39;;;;;;;609.33;580.33;;;16.40;99.90;;;;;;5021528;28;20203;-73
2022/06/04 06:11:07;;;;;;;632.70;601.03;;;16.30;99.90;;;;;;5015460;28;20686;-71
2022/06/04 06:13:33;;;;;;;608.47;579.38;;;16.30;99.90;;;;;;5028786;28;20262;-73
2022/06/04 06:16:12;;;;;;;539.13;514.42;;;16.50;99.90;;;;;;5027497;28;20322;-74
2022/06/04 06:18:38;;;;;;;561.30;535.22;;;16.50;99.90;;;;;;5026957;28;20686;-73
2022/06/04 06:21:14;;;;;;;621.95;591.10;;;16.40;99.90;;;;;;5028862;28;20191;-72
2022/06/04 06:23:40;;;;;;;563.03;536.35;;;16.20;99.90;;;;;;5024052;28;20220;-73
2022/06/04 06:26:11;;;;;;;555.42;529.88;;;16.30;99.90;;;;;;5047394;28;20277;-75
2022/06/04 06:28:39;;;;;;;588.85;560.60;;;16.40;99.90;;;;;;5020262;28;20210;-74
2022/06/04 06:31:05;;;;;;;587.53;559.38;;;16.30;99.90;;;;;;5033502;28;20496;-74
2022/06/04 06:33:31;;;;;;;553.47;527.58;;;16.40;99.90;;;;;;5017063;28;20191;-74
2022/06/04 06:36:00;;;;;;;552.33;526.50;;;16.50;99.90;;;;;;5020875;28;20531;-74
2022/06/04 06:38:26;;;;;;;570.83;543.88;;;16.40;99.90;;;;;;5032399;28;20183;-77
2022/06/04 06:40:57;;;;;;;667.97;634.65;;;16.40;99.90;;;;;;5043124;28;20195;-78
2022/06/04 06:43:31;;;;;;;590.88;562.83;;;16.40;99.90;;;;;;5028131;28;20194;-74
2022/06/04 06:46:02;;;;;;;585.55;557.60;;;16.40;99.90;;;;;;5025770;28;20699;-75
2022/06/04 06:48:28;;;;;;;582.25;555.35;;;16.70;99.90;;;;;;5019480;28;20561;-77
2022/06/04 06:50:54;;;;;;;628.90;597.40;;;16.90;99.90;;;;;;5022299;28;20186;-78
2022/06/04 06:53:19;;;;;;;538.92;513.40;;;16.70;99.90;;;;;;5033114;28;20586;-75
2022/06/04 06:55:45;;;;;;;540.28;514.97;;;16.60;99.90;;;;;;5016192;28;20695;-78
2022/06/04 06:58:11;;;;;;;540.67;513.50;;;16.90;99.90;;;;;;5015125;28;20190;-77
2022/06/04 07:00:38;;;;;;;548.22;522.72;;;17.10;99.90;;;;;;5018003;28;20203;-74
2022/06/04 07:03:03;;;;;;;509.25;486.42;;;17.20;99.90;;;;;;5029370;28;20300;-73
2022/06/04 07:05:29;;;;;;;477.88;456.52;;;17.60;99.90;;;;;;5022330;28;20199;-73
2022/06/04 07:07:55;;;;;;;489.15;465.05;;;17.70;99.90;;;;;;5014833;28;20264;-77
2022/06/04 07:10:22;;;;;;;600.30;559.38;;;18.00;99.90;;;;;;5017898;28;20670;-77
2022/06/04 07:12:47;;;;;;;607.95;576.40;;;17.90;99.90;;;;;;5020538;28;20188;-77
2022/06/04 07:15:13;;;;;;;467.63;446.73;;;18.10;99.90;;;;;;5012479;28;20241;-78
2022/06/04 07:17:39;;;;;;;480.23;458.63;;;18.60;99.90;;;;;;5024641;28;20277;-78
2022/06/04 07:20:05;;;;;;;469.42;448.42;;;19.10;99.90;;;;;;5024771;28;20655;-76
2022/06/04 07:22:31;;;;;;;461.92;441.52;;;19.40;99.90;;;;;;5031428;28;20186;-77
2022/06/04 07:24:57;;;;;;;494.58;471.50;;;19.30;99.90;;;;;;5032064;28;20552;-75
2022/06/04 07:27:23;;;;;;;562.67;536.38;;;19.10;99.90;;;;;;5032356;28;20284;-77
2022/06/04 07:29:49;;;;;;;570.50;543.75;;;18.30;99.90;;;;;;5031868;28;20229;-76
2022/06/04 07:32:15;;;;;;;568.70;540.25;;;18.20;99.90;;;;;;5031981;28;20241;-77
2022/06/04 07:34:40;;;;;;;574.97;548.33;;;17.80;99.90;;;;;;5032804;28;20640;-79
2022/06/04 07:37:07;;;;;;;563.97;537.97;;;17.70;99.90;;;;;;5019144;28;20218;-80
2022/06/04 07:39:34;;;;;;;518.33;494.52;;;17.90;99.90;;;;;;5027412;28;20183;-78
2022/06/04 07:41:59;;;;;;;460.05;440.17;;;18.20;99.90;;;;;;5016239;28;20196;-79
2022/06/04 07:44:26;;;;;;;486.27;464.95;;;18.50;99.90;;;;;;5026976;28;20196;-78
2022/06/04 07:46:54;;;;;;;462.13;441.60;;;19.20;99.90;;;;;;5026378;28;20637;-78
2022/06/04 07:49:21;;;;;;;463.75;443.67;;;20.00;99.90;;;;;;5014449;28;20278;-78
2022/06/04 07:51:47;;;;;;;520.97;497.13;;;19.80;99.90;;;;;;5022559;28;20184;-78
2022/06/04 07:54:14;;;;;;;576.25;548.70;;;20.50;99.90;;;;;;5031920;28;20268;-78
2022/06/04 07:56:40;;;;;;;482.00;460.20;;;21.00;99.90;;;;;;5025606;28;20522;-77
2022/06/04 07:59:07;;;;;;;582.63;554.72;;;21.60;99.90;;;;;;5030076;28;20266;-79
2022/06/04 08:01:33;;;;;;;507.65;484.63;;;22.00;99.90;;;;;;5031407;28;20198;-79
2022/06/04 08:03:58;;;;;;;600.67;571.95;;;23.10;99.90;;;;;;5015729;28;20682;-80
2022/06/04 08:06:25;;;;;;;535.00;509.05;;;23.70;99.90;;;;;;5030145;28;20277;-78
2022/06/04 08:08:54;;;;;;;650.55;617.42;;;23.20;99.90;;;;;;5029348;28;20237;-79
2022/06/04 08:11:33;;;;;;;660.28;626.63;;;22.70;99.90;;;;;;5021240;28;20241;-80
2022/06/04 08:14:00;;;;;;;647.13;614.38;;;22.40;99.90;;;;;;5018639;28;20227;-81
2022/06/04 08:16:26;;;;;;;640.15;608.22;;;22.80;99.90;;;;;;5014710;28;20183;-76
2022/06/04 08:18:51;;;;;;;698.08;661.55;;;23.40;99.90;;;;;;5023130;28;20547;-81
2022/06/04 08:21:17;;;;;;;669.03;634.80;;;23.10;99.90;;;;;;5025065;28;20314;-74
2022/06/04 08:23:44;;;;;;;684.50;648.90;;;23.60;99.90;;;;;;5032808;28;20263;-75
2022/06/04 08:26:11;;;;;;;697.08;660.33;;;24.00;99.90;;;;;;5029593;28;20669;-78
2022/06/04 08:28:36;;;;;;;700.15;662.95;;;24.10;99.90;;;;;;5018700;28;20556;-76
2022/06/04 08:31:06;;;;;;;770.38;726.42;;;23.90;99.90;;;;;;5023674;28;20187;-76
2022/06/04 08:33:32;;;;;;;781.33;736.45;;;24.00;99.90;;;;;;5031045;28;20604;-77
2022/06/04 08:35:58;;;;;;;782.60;737.33;;;22.70;99.90;;;;;;5030886;28;20640;-75
2022/06/04 08:38:24;;;;;;;848.00;796.00;;;22.00;99.90;;;;;;5044461;28;20241;-76
2022/06/04 08:40:56;;;;;;;747.60;705.95;;;22.20;99.90;;;;;;5023334;28;20647;-77
2022/06/04 08:43:37;;;;;;;772.70;728.70;;;23.30;99.90;;;;;;5023182;28;20182;-72
2022/06/04 08:46:11;;;;;;;781.85;736.22;;;23.30;99.90;;;;;;5014449;28;20183;-70
2022/06/04 08:48:37;;;;;;;857.10;804.42;;;22.80;99.90;;;;;;5015344;28;20198;-72
2022/06/04 08:51:12;;;;;;;803.00;755.45;;;22.30;99.90;;;;;;5019501;28;20191;-71
2022/06/04 08:53:39;;;;;;;784.40;739.08;;;22.30;99.90;;;;;;5010915;28;20179;-71
2022/06/04 08:59:27;;;;;;;784.50;738.80;;;23.70;99.90;;;;;;5015120;28;20238;-72
2022/06/04 09:01:56;;;;;;;806.35;758.53;;;24.00;99.90;;;;;;5012417;28;20542;-71
2022/06/04 09:04:42;;;;;;;810.03;762.22;;;23.40;99.90;;;;;;5022357;28;20182;-71
2022/06/04 09:07:11;;;;;;;810.03;761.88;;;24.10;99.90;;;;;;5025476;28;20203;-71
2022/06/04 09:10:00;;;;;;;809.78;761.55;;;25.30;99.90;;;;;;5022681;28;20710;-73
2022/06/04 09:12:40;;;;;;;797.63;751.05;;;25.50;99.90;;;;;;5027676;28;20195;-71
2022/06/04 09:15:15;;;;;;;818.67;769.08;;;25.40;99.90;;;;;;5013260;28;20257;-71
2022/06/04 09:17:41;;;;;;;825.67;775.75;;;24.40;99.90;;;;;;5016197;28;20202;-71
2022/06/04 09:20:24;;;;;;;821.58;772.15;;;23.90;99.90;;;;;;5019063;28;20185;-71
2022/06/04 09:22:51;;;;;;;800.05;752.90;;;23.60;99.90;;;;;;5031630;28;20213;-70
2022/06/04 09:25:22;;;;;;;782.17;736.83;;;23.90;99.90;;;;;;5041545;28;20191;-72
2022/06/04 09:28:02;;;;;;;810.22;761.70;;;23.90;99.90;;;;;;5029886;28;20206;-71
2022/06/04 09:30:40;;;;;;;809.63;761.80;;;23.50;99.90;;;;;;5011989;28;20551;-71
2022/06/04 09:33:34;;;;;;;797.72;751.30;;;23.40;99.90;;;;;;5017338;28;20209;-71
2022/06/04 09:36:01;;;;;;;809.42;761.67;;;23.80;99.90;;;;;;5032176;28;20542;-71
2022/06/04 09:38:32;;;;;;;811.45;762.72;;;23.30;99.90;;;;;;5015205;28;20195;-71
2022/06/04 09:41:04;;;;;;;795.72;749.33;;;22.70;99.90;;;;;;5026792;28;20175;-71
2022/06/04 09:43:31;;;;;;;836.20;785.38;;;22.80;99.90;;;;;;5024654;28;20533;-71
2022/06/04 09:46:00;;;;;;;788.60;743.17;;;22.90;99.90;;;;;;5030904;28;20190;-70
2022/06/04 09:48:34;;;;;;;761.15;718.92;;;23.80;99.90;;;;;;5036571;28;20678;-71
2022/06/04 09:51:21;;;;;;;784.65;739.53;;;23.50;99.90;;;;;;5013920;28;20532;-71
2022/06/04 09:53:52;;;;;;;793.80;747.53;;;23.10;99.90;;;;;;5023685;28;20539;-71
2022/06/04 09:56:43;;;;;;;793.15;746.53;;;22.60;99.90;;;;;;5035306;28;20183;-72
2022/06/04 09:59:28;;;;;;;787.10;741.65;;;22.40;99.90;;;;;;5031938;28;20641;-72
2022/06/04 10:02:00;;;;;;;775.38;730.97;;;22.60;99.90;;;;;;5021093;28;20241;-72
2022/06/04 10:05:04;;;;;;;730.95;691.10;;;23.10;99.90;;;;;;5032282;28;20694;-71
2022/06/04 10:07:33;;;;;;;779.65;735.17;;;23.30;99.90;;;;;;5027559;28;20242;-72
2022/06/04 10:10:21;;;;;;;753.28;711.33;;;22.80;99.90;;;;;;5034739;28;20196;-71
2022/06/04 10:15:45;;;;;;;759.45;717.20;;;22.50;99.90;;;;;;5027523;28;20725;-71
2022/06/04 10:18:39;;;;;;;771.25;727.25;;;22.40;99.90;;;;;;5030192;28;20183;-72
2022/06/04 10:21:17;;;;;;;768.72;725.30;;;22.20;99.90;;;;;;5056436;28;20247;-71
2022/06/04 10:23:49;;;;;;;755.47;713.30;;;22.30;99.90;;;;;;5047023;28;20171;-73
2022/06/04 10:26:51;;;;;;;757.28;714.50;;;22.20;99.90;;;;;;5034209;28;20648;-73
2022/06/04 10:29:41;;;;;;;747.53;706.22;;;22.10;99.90;;;;;;5027534;28;20300;-73
2022/06/04 10:32:52;;;;;;;697.13;659.67;;;22.30;99.90;;;;;;5022298;28;20195;-73
2022/06/04 10:36:01;;;;;;;694.28;657.90;;;22.10;99.90;;;;;;5023429;28;20195;-73
2022/06/04 10:38:36;;;;;;;650.05;617.53;;;22.20;99.90;;;;;;5019695;28;20182;-75
2022/06/04 10:41:30;;;;;;;684.00;648.75;;;22.00;99.90;;;;;;5025341;28;20213;-72
2022/06/04 10:44:11;;;;;;;670.05;634.20;;;21.90;99.90;;;;;;5030572;28;20574;-75
2022/06/04 10:46:45;;;;;;;695.60;658.90;;;21.50;99.90;;;;;;5037335;28;20189;-74
2022/06/04 10:49:26;;;;;;;627.05;596.00;;;21.30;99.90;;;;;;5045152;28;20642;-75
2022/06/04 10:52:21;;;;;;;575.67;548.42;;;21.30;99.90;;;;;;5030517;28;20595;-73
2022/06/04 10:54:56;;;;;;;544.30;519.10;;;21.60;99.90;;;;;;5032716;28;20631;-73
2022/06/04 10:57:38;;;;;;;516.88;493.50;;;21.80;99.90;;;;;;5022386;28;20179;-74
2022/06/04 11:00:09;;;;;;;387.80;370.77;;;21.80;99.90;;;;;;5025663;28;20178;-74
2022/06/04 11:03:12;;;;;;;487.50;465.75;;;21.50;99.90;;;;;;5018973;28;20186;-73
2022/06/04 11:05:49;;;;;;;453.35;433.95;;;21.50;99.90;;;;;;5010371;28;20218;-73
2022/06/04 11:08:20;;;;;;;452.05;432.60;;;21.60;99.90;;;;;;5027557;28;20234;-73
2022/06/04 11:10:52;;;;;;;464.08;443.52;;;21.60;99.90;;;;;;5030365;28;20183;-73
2022/06/04 11:13:25;;;;;;;402.85;386.20;;;21.40;99.90;;;;;;5043493;28;20190;-73
2022/06/04 11:16:18;;;;;;;370.08;354.38;;;21.30;99.90;;;;;;5032205;28;20644;-73
2022/06/04 11:18:50;;;;;;;401.25;382.77;;;21.60;99.90;;;;;;5029284;28;20185;-74
2022/06/04 11:21:40;;;;;;;360.95;346.10;;;21.30;99.90;;;;;;5050879;28;20190;-73
2022/06/04 11:24:08;;;;;;;353.20;338.48;;;21.30;99.90;;;;;;5044774;28;20265;-73
2022/06/04 11:27:00;;;;;;;300.65;287.80;;;21.60;99.90;;;;;;5028191;28;20190;-75
2022/06/04 11:29:26;;;;;;;278.88;266.98;;;21.80;99.90;;;;;;5026453;28;20182;-76
2022/06/04 11:32:19;;;;;;;233.07;222.85;;;22.20;99.90;;;;;;5042256;28;20187;-76
2022/06/04 11:35:08;;;;;;;263.55;252.48;;;22.20;99.90;;;;;;5020588;28;20179;-76
2022/06/04 11:37:52;;;;;;;287.20;275.17;;;21.90;99.90;;;;;;5031336;28;20186;-76
2022/06/04 11:40:35;;;;;;;240.77;230.60;;;21.80;99.90;;;;;;5020845;28;20183;-74
2022/06/04 11:43:15;;;;;;;259.83;248.30;;;21.80;99.90;;;;;;5018745;28;20186;-76
2022/06/04 11:46:02;;;;;;;246.40;235.55;;;21.80;99.90;;;;;;5027526;28;20180;-76
2022/06/04 11:49:01;;;;;;;247.32;236.82;;;21.90;99.90;;;;;;5015446;28;20206;-77
2022/06/04 11:52:09;;;;;;;260.67;249.82;;;21.90;99.90;;;;;;5023820;28;20194;-75
2022/06/04 11:54:56;;;;;;;253.90;239.65;;;22.10;99.90;;;;;;5015502;28;20187;-75
2022/06/04 11:57:48;;;;;;;248.75;237.00;;;22.30;99.90;;;;;;5025235;28;20240;-76
2022/06/04 12:00:21;;;;;;;233.20;222.90;;;22.10;99.90;;;;;;5028678;28;20206;-75
2022/06/04 12:03:19;;;;;;;270.33;251.32;;;22.20;99.90;;;;;;5047096;28;20562;-73
2022/06/04 12:06:30;;;;;;;195.73;186.80;;;22.50;99.90;;;;;;5030205;28;20282;-75
2022/06/04 12:09:15;;;;;;;196.13;181.45;;;22.50;99.90;;;;;;5011076;28;20221;-75
2022/06/04 12:11:58;;;;;;;135.60;129.40;;;22.50;99.90;;;;;;5030404;28;20202;-75
2022/06/04 12:14:32;;;;;;;125.47;118.75;;;22.90;99.90;;;;;;5026091;28;20633;-75
2022/06/04 12:17:20;;;;;;;103.57;98.50;;;23.00;99.90;;;;;;5015539;28;20191;-75
2022/06/04 12:25:44;;;;;;;130.05;123.97;;;22.70;99.90;;;;;;5021028;28;20236;-74
2022/06/04 12:28:29;;;;;;;112.07;106.65;;;23.00;99.90;;;;;;5026146;28;20216;-74
2022/06/04 12:30:56;;;;;;;115.95;110.25;;;23.10;99.90;;;;;;5029444;28;20190;-75
2022/06/04 12:33:34;;;;;;;129.43;122.07;;;23.10;99.90;;;;;;5031629;28;20193;-73
2022/06/04 12:36:22;;;;;;;111.22;105.75;;;23.00;99.90;;;;;;5022427;28;20174;-74
2022/06/04 12:39:01;;;;;;;130.65;123.93;;;23.10;99.90;;;;;;5032257;28;20210;-75
2022/06/04 12:41:48;;;;;;;108.15;102.60;;;23.10;99.90;;;;;;5040153;28;20183;-76
2022/06/04 12:44:23;;;;;;;93.63;88.60;;;23.20;99.90;;;;;;5024575;28;20721;-74
2022/06/04 12:46:52;;;;;;;99.43;94.43;;;23.20;99.90;;;;;;5030254;28;20265;-74
2022/06/04 12:49:25;;;;;;;97.03;91.15;;;23.20;99.90;;;;;;5031899;28;20229;-74
2022/06/04 12:52:40;;;;;;;78.35;74.15;;;23.20;99.90;;;;;;5032419;28;20190;-74
2022/06/04 12:55:37;;;;;;;90.50;85.85;;;23.40;99.90;;;;;;5047682;28;20234;-73
2022/06/04 12:58:21;;;;;;;86.35;81.93;;;23.40;99.90;;;;;;5042017;28;20208;-75